createdAt,value
2024-01-20T00:09:49.948Z,101768.84
2024-01-20T00:19:56.341Z,101755.31
2024-01-20T00:30:05.118Z,101799.72
2024-01-20T00:40:09.411Z,101788.47
2024-01-20T00:50:13.936Z,101767.09
2024-01-20T01:00:17.117Z,101790.81
2024-01-20T01:10:21.485Z,101693.47
2024-01-20T01:20:24.343Z,101801.06
2024-01-20T01:30:29.013Z,101806.28
2024-01-20T01:40:31.875Z,101820.03
2024-01-20T01:50:36.099Z,101832.41
2024-01-20T02:00:39.657Z,101847.56
2024-01-20T02:10:45.309Z,101858.59
2024-01-20T02:20:48.398Z,101849.72
2024-01-20T02:30:52.497Z,101857.34
2024-01-20T02:40:55.405Z,101852.06
2024-01-20T02:51:00.615Z,101846.34
2024-01-20T03:01:03.530Z,101842.59
2024-01-20T03:11:07.977Z,101851.78
2024-01-20T03:21:10.887Z,101859.78
2024-01-20T03:31:15.409Z,101864.44
2024-01-20T03:41:19.525Z,101801.81
2024-01-20T03:51:28.571Z,101871.47
2024-01-20T04:01:31.675Z,101879.72
2024-01-20T04:11:39.841Z,101866.94
2024-01-20T04:21:45.296Z,101699.50
2024-01-20T04:31:49.480Z,101854.09
2024-01-20T04:41:52.427Z,101894.59
2024-01-20T04:51:58.626Z,101909.53
2024-01-20T05:02:01.492Z,101907.19
2024-01-20T05:12:06.519Z,101795.22
2024-01-20T05:22:09.566Z,101729.16
2024-01-20T05:32:13.703Z,101940.34
2024-01-20T05:42:16.599Z,101713.31
2024-01-20T05:52:20.899Z,101951.00
2024-01-20T06:02:23.648Z,101972.44
2024-01-20T06:12:27.842Z,101964.94
2024-01-20T06:22:30.690Z,101968.16
2024-01-20T06:32:34.816Z,101906.97
2024-01-20T06:42:37.755Z,101983.41
2024-01-20T06:52:43.411Z,101985.91
2024-01-20T07:02:46.323Z,101926.13
2024-01-20T07:12:50.746Z,101960.81
2024-01-20T07:22:53.754Z,101939.59
2024-01-20T07:33:00.030Z,102004.88
2024-01-20T07:43:02.960Z,102045.38
2024-01-20T07:53:07.441Z,102061.53
2024-01-20T08:03:10.457Z,102056.25
2024-01-20T08:13:15.010Z,102021.34
2024-01-20T08:23:18.124Z,102007.56
2024-01-20T08:33:22.406Z,102087.03
2024-01-20T08:43:25.446Z,102087.78
2024-01-20T08:53:29.935Z,102022.06
2024-01-20T09:03:32.805Z,102071.84
2024-01-20T09:13:37.231Z,102045.88
2024-01-20T09:23:40.828Z,102030.97
2024-01-20T09:33:46.423Z,102072.16
2024-01-20T09:43:50.412Z,102067.53
2024-01-20T09:54:00.276Z,102016.06
2024-01-20T10:04:05.334Z,102085.69
2024-01-20T10:14:09.565Z,101996.84
2024-01-20T10:24:12.423Z,102075.78
2024-01-20T10:34:16.951Z,102066.19
2024-01-20T10:44:22.960Z,102059.78
2024-01-20T10:54:29.261Z,102040.69
2024-01-20T11:04:36.030Z,102052.53
2024-01-20T11:14:42.927Z,102045.63
2024-01-20T11:24:46.131Z,102033.84
2024-01-20T11:34:50.640Z,101980.56
2024-01-20T11:44:53.781Z,102008.75
2024-01-20T11:54:57.902Z,102002.47
2024-01-20T12:05:07.784Z,101993.94
2024-01-20T12:15:13.028Z,101964.63
2024-01-20T12:25:17.387Z,101949.94
2024-01-20T12:35:22.163Z,101922.88
2024-01-20T12:45:32.281Z,101977.34
2024-01-20T12:55:41.740Z,101964.41
2024-01-20T13:05:46.084Z,101970.53
2024-01-20T13:15:50.337Z,101965.09
2024-01-20T13:25:55.668Z,101963.63
2024-01-20T13:35:59.918Z,101968.72
2024-01-20T13:46:03.718Z,101790.97
2024-01-20T13:56:08.367Z,101958.25
2024-01-20T14:06:33.744Z,101953.59
2024-01-20T14:27:45.401Z,101947.75
2024-01-20T14:48:40.569Z,101893.00
2024-01-20T14:58:54.375Z,101947.91
2024-01-20T15:08:59.835Z,101976.03
2024-01-20T15:19:04.615Z,101811.34
2024-01-20T15:29:09.366Z,101977.50
2024-01-20T15:39:13.713Z,101974.03
2024-01-20T15:49:18.347Z,101970.69
2024-01-20T15:59:25.181Z,101964.56
2024-01-20T16:09:29.223Z,101932.22
2024-01-20T16:19:36.464Z,101970.59
2024-01-20T16:29:39.293Z,101984.16
2024-01-20T16:39:43.519Z,101980.84
2024-01-20T16:49:46.763Z,101960.81
2024-01-20T16:59:51.300Z,101966.25
2024-01-20T17:09:54.188Z,101992.91
2024-01-20T17:19:59.207Z,101968.44
2024-01-20T17:30:02.102Z,101993.28
2024-01-20T17:40:09.023Z,101962.66
2024-01-20T17:50:12.020Z,101997.53
2024-01-20T18:00:18.177Z,101997.38
2024-01-20T18:10:21.204Z,101979.19
2024-01-20T18:20:25.422Z,101975.00
2024-01-20T18:30:28.256Z,101998.66
2024-01-20T18:40:32.505Z,101970.63
2024-01-20T18:50:38.713Z,101974.38
2024-01-20T19:00:43.073Z,101987.84
2024-01-20T19:10:46.007Z,101970.56
2024-01-20T19:20:50.392Z,101964.72
2024-01-20T19:30:55.446Z,101940.94
2024-01-20T19:40:59.659Z,101946.16
2024-01-20T19:51:02.767Z,101936.25
2024-01-20T20:01:07.714Z,101928.97
2024-01-20T20:11:11.782Z,101919.09
2024-01-20T20:21:16.815Z,101904.72
2024-01-20T20:31:23.169Z,101901.81
2024-01-20T20:41:27.361Z,101888.75
2024-01-20T20:51:30.374Z,101902.56
2024-01-20T21:01:50.400Z,101842.13
2024-01-20T21:11:53.304Z,101900.97
2024-01-20T21:21:57.782Z,101863.81
2024-01-20T21:32:00.668Z,101883.66
2024-01-20T21:42:05.484Z,101878.53
2024-01-20T21:52:08.826Z,101858.44
2024-01-20T22:02:13.000Z,101834.09
2024-01-20T22:12:15.937Z,101810.06
2024-01-20T22:22:20.896Z,101819.47
2024-01-20T22:32:23.881Z,101799.97
2024-01-20T22:42:28.109Z,101812.47
2024-01-20T22:52:31.020Z,101796.25
2024-01-20T23:02:35.167Z,101733.69
2024-01-20T23:12:38.058Z,101771.56
2024-01-20T23:22:42.657Z,101777.22
2024-01-20T23:32:45.799Z,101773.38
2024-01-20T23:42:50.408Z,101735.94
2024-01-20T23:52:53.266Z,101724.38
